createdAt,value
2022-11-08T00:05:34.403Z,48.3
2022-11-08T00:10:56.805Z,48.2
2022-11-08T00:16:02.834Z,48.1
2022-11-08T00:21:39.793Z,48.1
2022-11-08T00:27:17.427Z,48.1
2022-11-08T00:32:38.977Z,48
2022-11-08T00:38:16.064Z,48
2022-11-08T00:43:54.359Z,47.9
2022-11-08T00:49:30.878Z,47.9
2022-11-08T00:55:07.875Z,47.8
2022-11-08T01:01:08.377Z,47.8
2022-11-08T01:06:30.627Z,47.8
2022-11-08T01:12:07.415Z,47.7
2022-11-08T01:17:29.480Z,47.7
2022-11-08T01:22:51.838Z,47.6
2022-11-08T01:28:29.410Z,47.6
2022-11-08T01:34:08.387Z,47.6
2022-11-08T01:39:44.871Z,47.5
2022-11-08T01:44:51.032Z,47.5
2022-11-08T01:50:30.102Z,47.4
2022-11-08T01:55:51.600Z,47.4
2022-11-08T02:01:27.609Z,47.3
2022-11-08T02:07:05.441Z,47.3
2022-11-08T02:12:26.195Z,47.3
2022-11-08T02:18:08.548Z,47.2
2022-11-08T02:23:31.542Z,47.2
2022-11-08T02:29:08.351Z,47.1
2022-11-08T02:34:29.504Z,47.1
2022-11-08T02:40:07.487Z,47.1
2022-11-08T02:45:44.615Z,47
2022-11-08T02:51:23.403Z,46.9
2022-11-08T02:56:46.150Z,46.9
2022-11-08T03:02:22.874Z,46.9
2022-11-08T03:07:44.966Z,46.9
2022-11-08T03:13:07.931Z,46.8
2022-11-08T03:18:45.697Z,46.8
2022-11-08T03:24:27.147Z,46.8
2022-11-08T03:30:05.565Z,46.7
2022-11-08T03:35:26.298Z,46.6
2022-11-08T03:40:47.418Z,46.6
2022-11-08T03:46:25.436Z,46.6
2022-11-08T03:52:01.939Z,46.5
2022-11-08T03:57:38.756Z,46.5
2022-11-08T04:03:17.509Z,46.4
2022-11-08T04:08:39.009Z,46.4
2022-11-08T04:14:16.114Z,46.4
2022-11-08T04:19:59.157Z,46.3
2022-11-08T04:25:36.630Z,46.3
2022-11-08T04:30:42.713Z,46.3
2022-11-08T04:36:04.824Z,46.2
2022-11-08T04:41:42.581Z,46.2
2022-11-08T04:46:52.211Z,46.1
2022-11-08T04:52:36.311Z,46.1
2022-11-08T04:57:57.877Z,46
2022-11-08T05:03:27.184Z,45.9
2022-11-08T05:08:49.973Z,45.9
2022-11-08T05:14:32.791Z,45.8
2022-11-08T05:20:01.567Z,45.8
2022-11-08T05:25:40.029Z,45.8
2022-11-08T05:31:20.912Z,45.7
2022-11-08T05:36:57.744Z,45.6
2022-11-08T05:42:29.581Z,45.6
2022-11-08T05:47:50.846Z,45.6
2022-11-08T05:53:27.810Z,45.5
2022-11-08T05:59:06.250Z,45.3
2022-11-08T06:04:46.238Z,44.8
2022-11-08T06:10:28.405Z,44.1
2022-11-08T06:16:07.729Z,43.9
2022-11-08T06:21:45.397Z,43.8
2022-11-08T06:27:26.383Z,43.7
2022-11-08T06:32:50.112Z,43.6
2022-11-08T06:38:18.504Z,43.6
2022-11-08T06:43:56.011Z,43.6
2022-11-08T06:49:24.242Z,43.6
2022-11-08T06:55:06.819Z,43.5
2022-11-08T07:00:43.706Z,43.4
2022-11-08T07:06:08.039Z,43.4
2022-11-08T07:11:47.908Z,43.4
2022-11-08T07:17:25.013Z,43.4
2022-11-08T07:23:03.189Z,43.3
2022-11-08T07:28:41.053Z,43.3
2022-11-08T07:34:19.920Z,43.3
2022-11-08T07:39:42.817Z,43.3
2022-11-08T07:45:47.840Z,43.2
2022-11-08T07:51:24.362Z,43.1
2022-11-08T07:57:06.291Z,43.1
2022-11-08T08:02:44.575Z,43.1
2022-11-08T08:08:22.661Z,43.1
2022-11-08T08:14:07.009Z,43
2022-11-08T08:19:30.840Z,42.9
2022-11-08T08:25:08.176Z,42.9
2022-11-08T08:30:46.019Z,42.9
2022-11-08T08:36:58.376Z,42.9
2022-11-08T08:42:42.678Z,42.8
2022-11-08T08:48:22.737Z,42.8
2022-11-08T08:54:00.220Z,42.8
2022-11-08T09:02:08.291Z,42.7
2022-11-08T09:07:33.094Z,42.6
2022-11-08T09:12:58.165Z,42.6
2022-11-08T09:18:20.270Z,42.6
2022-11-08T09:23:43.112Z,42.6
2022-11-08T09:29:04.998Z,42.5
2022-11-08T09:34:54.788Z,42.4
2022-11-08T09:40:22.664Z,42.4
2022-11-08T09:45:45.685Z,42.4
2022-11-08T09:51:23.569Z,42.4
2022-11-08T09:57:03.480Z,42.3
2022-11-08T10:02:47.255Z,42.3
2022-11-08T10:08:10.344Z,42.3
2022-11-08T10:13:49.790Z,42.2
2022-11-08T10:19:23.167Z,42.2
2022-11-08T10:25:01.054Z,42.1
2022-11-08T10:30:41.798Z,42.1
2022-11-08T10:36:19.456Z,42.1
2022-11-08T10:41:56.974Z,42
2022-11-08T10:47:40.271Z,42
2022-11-08T10:53:20.192Z,42
2022-11-08T10:58:57.487Z,41.9
2022-11-08T11:04:37.736Z,41.9
2022-11-08T11:10:15.494Z,41.9
2022-11-08T11:15:42.009Z,41.9
2022-11-08T11:21:20.381Z,41.8
2022-11-08T11:26:58.002Z,41.8
2022-11-08T11:32:35.528Z,41.8
2022-11-08T11:38:13.846Z,41.7
2022-11-08T11:44:18.361Z,41.6
2022-11-08T11:49:59.926Z,41.6
2022-11-08T11:55:43.819Z,41.6
2022-11-08T12:01:25.736Z,41.6
2022-11-08T12:06:48.116Z,41.5
2022-11-08T12:12:27.310Z,41.5
2022-11-08T12:18:08.555Z,41.4
2022-11-08T12:23:51.439Z,41.4
2022-11-08T12:29:31.622Z,41.4
2022-11-08T12:35:08.970Z,41.4
2022-11-08T12:40:46.442Z,41.3
2022-11-08T12:46:24.466Z,41.1
2022-11-08T12:52:07.113Z,41.3
2022-11-08T12:57:44.135Z,41.4
2022-11-08T13:03:24.218Z,41.6
2022-11-08T13:09:06.715Z,41.6
2022-11-08T13:14:43.604Z,41.6
2022-11-08T13:20:22.623Z,41.6
2022-11-08T13:26:23.718Z,41.6
2022-11-08T13:31:48.845Z,41.6
2022-11-08T13:37:27.042Z,41.6
2022-11-08T13:43:08.755Z,41.6
2022-11-08T13:48:47.077Z,41.7
2022-11-08T13:54:25.334Z,41.7
2022-11-08T14:00:03.410Z,41.7
2022-11-08T14:05:41.992Z,41.7
2022-11-08T14:11:28.840Z,41.7
2022-11-08T14:17:06.053Z,41.6
2022-11-08T14:22:46.194Z,41.7
2022-11-08T14:28:28.456Z,41.6
2022-11-08T14:34:12.285Z,41.6
2022-11-08T14:39:52.253Z,41.6
2022-11-08T14:45:30.974Z,41.6
2022-11-08T14:51:09.042Z,41.6
2022-11-08T14:56:37.151Z,41.6
2022-11-08T15:02:15.960Z,41.6
2022-11-08T15:07:37.933Z,41.5
2022-11-08T15:13:16.362Z,41.5
2022-11-08T15:18:59.501Z,41.4
2022-11-08T15:24:37.030Z,41.4
2022-11-08T15:30:17.033Z,41.4
2022-11-08T15:35:44.379Z,41.4
2022-11-08T15:41:26.125Z,41.4
2022-11-08T15:46:47.646Z,41.4
2022-11-08T15:52:26.078Z,41.3
2022-11-08T15:58:03.404Z,41.3
2022-11-08T16:03:26.253Z,41.3
2022-11-08T16:09:09.517Z,41.3
2022-11-08T16:14:31.740Z,41.3
2022-11-08T16:20:14.531Z,41.3
2022-11-08T16:25:58.936Z,41.2
2022-11-08T16:31:20.379Z,41.2
2022-11-08T16:36:42.574Z,41.2
2022-11-08T16:42:20.494Z,41.1
2022-11-08T16:48:16.412Z,41.1
2022-11-08T16:53:54.276Z,41.1
2022-11-08T17:00:03.085Z,41.1
2022-11-08T17:05:10.113Z,41.1
2022-11-08T17:10:53.275Z,41
2022-11-08T17:16:32.103Z,41
2022-11-08T17:22:48.797Z,40.9
2022-11-08T17:28:30.948Z,40.9
2022-11-08T17:34:10.515Z,40.9
2022-11-08T17:39:48.238Z,40.9
2022-11-08T17:45:29.522Z,40.9
2022-11-08T17:51:07.636Z,40.9
2022-11-08T17:56:49.069Z,40.9
2022-11-08T18:02:11.212Z,40.8
2022-11-08T18:07:51.143Z,40.8
2022-11-08T18:13:17.408Z,40.8
2022-11-08T18:18:43.525Z,40.8
2022-11-08T18:23:51.784Z,40.8
2022-11-08T18:29:34.652Z,40.7
2022-11-08T18:35:17.778Z,40.7
2022-11-08T18:40:58.907Z,40.7
2022-11-08T18:46:40.402Z,40.6
2022-11-08T18:52:20.821Z,40.6
2022-11-08T18:57:58.469Z,40.6
2022-11-08T19:03:41.338Z,40.6
2022-11-08T19:08:51.243Z,40.6
2022-11-08T19:14:29.101Z,40.5
2022-11-08T19:19:50.716Z,40.4
2022-11-08T19:25:27.589Z,40.4
2022-11-08T19:31:07.994Z,40.4
2022-11-08T19:36:29.951Z,40.4
2022-11-08T19:42:12.319Z,40.4
2022-11-08T19:47:20.267Z,40.4
2022-11-08T19:52:42.598Z,40.3
2022-11-08T19:58:11.316Z,40.3
2022-11-08T20:03:34.108Z,40.3
2022-11-08T20:08:57.248Z,40.3
2022-11-08T20:14:19.923Z,40.3
2022-11-08T20:19:28.528Z,40.3
2022-11-08T20:25:06.247Z,40.2
2022-11-08T20:30:35.742Z,40.2
2022-11-08T20:36:17.626Z,40.1
2022-11-08T20:41:42.832Z,40.1
2022-11-08T20:47:10.825Z,40.1
2022-11-08T20:52:58.337Z,40.1
2022-11-08T20:58:41.517Z,40.1
2022-11-08T21:04:41.425Z,40.1
2022-11-08T21:12:56.988Z,40
2022-11-08T21:18:44.158Z,39.9
2022-11-08T21:31:44.880Z,39.9
2022-11-08T21:37:23.426Z,39.9
2022-11-08T21:43:05.027Z,39.9
2022-11-08T21:48:47.870Z,39.8
2022-11-08T21:54:32.360Z,39.8
2022-11-08T22:00:08.764Z,39.8
2022-11-08T22:05:16.789Z,39.8
2022-11-08T22:10:44.895Z,39.8
2022-11-08T22:16:06.674Z,39.8
2022-11-08T22:21:51.688Z,39.8
2022-11-08T22:27:13.929Z,39.7
2022-11-08T22:32:19.982Z,39.7
2022-11-08T22:37:45.548Z,39.6
2022-11-08T22:43:08.479Z,39.6
2022-11-08T22:48:29.957Z,39.6
2022-11-08T22:53:40.508Z,39.6
2022-11-08T22:58:32.201Z,39.6
2022-11-08T23:03:39.152Z,39.6
2022-11-08T23:08:46.661Z,39.5
2022-11-08T23:14:09.589Z,39.5
2022-11-08T23:19:15.584Z,39.5
2022-11-08T23:24:38.113Z,39.5
2022-11-08T23:29:47.459Z,39.4
2022-11-08T23:34:53.393Z,39.4
2022-11-08T23:40:03.478Z,39.4
2022-11-08T23:45:40.543Z,39.4
2022-11-08T23:50:46.472Z,39.4
2022-11-08T23:56:08.348Z,39.4
